Time;durP1;ratioP1;P1;durP2;ratioP2;P2;SDS_P1;SDS_P2;PMS_P1;PMS_P2;Temp;Humidity;BMP_temperature;BMP_pressure;BME280_temperature;BME280_humidity;BME280_pressure;Samples;Min_cycle;Max_cycle;Signal;HPM_P1;HPM_P2
2021/12/01 00:01:58;;;;;;;14.00;3.20;;;;;;;0.41;100.00;100171.94;4933886;29;20189;-80
2021/12/01 00:04:23;;;;;;;8.82;2.17;;;;;;;0.46;100.00;100175.44;4901624;29;20177;-80
2021/12/01 00:06:49;;;;;;;11.35;2.88;;;;;;;0.59;100.00;100173.56;4917154;29;20196;-79
2021/12/01 00:09:14;;;;;;;9.05;2.83;;;;;;;0.74;100.00;100164.66;4916656;29;20330;-79
2021/12/01 00:11:40;;;;;;;13.55;2.70;;;;;;;0.79;100.00;100144.41;4916785;29;20641;-79
2021/12/01 00:14:06;;;;;;;15.00;2.55;;;;;;;0.88;100.00;100146.09;4932620;29;20192;-79
2021/12/01 00:16:31;;;;;;;15.07;2.80;;;;;;;0.99;100.00;100136.28;4916285;29;20568;-81
2021/12/01 00:18:57;;;;;;;11.15;2.22;;;;;;;1.08;100.00;100123.00;4900386;29;20291;-80
2021/12/01 00:21:22;;;;;;;8.50;2.58;;;;;;;1.14;100.00;100115.03;4901344;29;20219;-80
2021/12/01 00:23:48;;;;;;;21.52;3.13;;;;;;;1.16;100.00;100104.44;4899672;29;20177;-80
2021/12/01 00:26:13;;;;;;;18.65;3.20;;;;;;;1.17;100.00;100099.16;4901389;29;20165;-80
2021/12/01 00:28:39;;;;;;;15.75;2.60;;;;;;;1.20;100.00;100104.41;4915450;29;20216;-80
2021/12/01 00:31:05;;;;;;;18.02;2.97;;;;;;;1.23;100.00;100091.16;4901450;29;20308;-80
2021/12/01 00:33:31;;;;;;;13.60;2.20;;;;;;;1.32;100.00;100087.53;4915961;29;20181;-80
2021/12/01 00:35:57;;;;;;;15.45;2.42;;;;;;;1.32;100.00;100087.53;4901083;29;20180;-80
2021/12/01 00:38:25;;;;;;;12.23;2.63;;;;;;;1.31;100.00;100077.00;4899246;29;20216;-81
2021/12/01 00:40:51;;;;;;;10.85;2.45;;;;;;;1.35;100.00;100065.50;4900928;29;20679;-79
2021/12/01 00:43:18;;;;;;;13.13;1.95;;;;;;;1.37;100.00;100048.75;4900406;29;20249;-81
2021/12/01 00:46:09;;;;;;;14.32;2.35;;;;;;;1.33;100.00;100048.81;4915057;29;20326;-80
2021/12/01 00:48:34;;;;;;;8.02;1.95;;;;;;;1.28;100.00;100055.94;4884446;29;20185;-80
2021/12/01 00:51:00;;;;;;;13.65;2.45;;;;;;;1.26;100.00;100041.88;4915138;29;20200;-80
2021/12/01 00:53:25;;;;;;;16.42;3.15;;;;;;;1.19;100.00;100041.09;4914766;29;20798;-80
2021/12/01 00:55:51;;;;;;;17.42;3.78;;;;;;;1.16;100.00;100039.38;4881770;29;20185;-80
2021/12/01 00:58:17;;;;;;;16.10;2.50;;;;;;;1.12;100.00;100037.66;4883040;29;20182;-80
2021/12/01 01:00:44;;;;;;;12.43;2.72;;;;;;;1.07;100.00;100034.19;4882576;29;20197;-79
2021/12/01 01:03:10;;;;;;;14.27;2.28;;;;;;;1.03;100.00;100028.09;4880672;29;20252;-80
2021/12/01 01:05:36;;;;;;;12.73;2.65;;;;;;;1.03;100.00;100027.22;4879860;29;20185;-80
2021/12/01 01:08:02;;;;;;;13.25;3.50;;;;;;;1.01;100.00;100016.69;4895724;29;20193;-80
2021/12/01 01:18:25;;;;;;;12.13;2.78;;;;;;;1.08;100.00;99982.31;4881020;29;20201;-80
2021/12/01 01:20:51;;;;;;;14.52;2.90;;;;;;;1.05;100.00;99975.34;4880805;29;20217;-80
2021/12/01 01:23:16;;;;;;;10.23;2.40;;;;;;;1.08;100.00;99975.28;4881182;29;20166;-79
2021/12/01 01:25:42;;;;;;;15.40;2.88;;;;;;;1.06;100.00;99969.16;4881158;29;20184;-81
2021/12/01 01:28:08;;;;;;;13.60;2.72;;;;;;;1.10;100.00;99960.31;4881109;29;20173;-80
2021/12/01 01:30:33;;;;;;;11.10;2.60;;;;;;;1.12;100.00;99947.97;4879378;29;20202;-80
2021/12/01 01:33:00;;;;;;;14.02;3.08;;;;;;;1.16;100.00;99947.03;4881130;29;20173;-80
2021/12/01 01:35:26;;;;;;;9.43;2.53;;;;;;;1.19;100.00;99939.06;4895051;29;20191;-80
2021/12/01 01:37:51;;;;;;;10.18;2.20;;;;;;;1.26;100.00;99923.16;4880629;29;20206;-80
2021/12/01 01:40:17;;;;;;;11.80;2.65;;;;;;;1.27;100.00;99919.59;4879276;29;20209;-80
2021/12/01 01:42:43;;;;;;;12.50;2.67;;;;;;;1.30;100.00;99911.66;4879544;29;20193;-80
2021/12/01 01:45:09;;;;;;;19.10;2.65;;;;;;;1.34;100.00;99916.88;4879979;29;20193;-80
2021/12/01 01:47:35;;;;;;;16.50;2.72;;;;;;;1.34;100.00;99905.44;4880612;29;20177;-80
2021/12/01 01:50:34;;;;;;;14.98;2.58;;;;;;;1.35;100.00;99897.47;4879405;29;20193;-80
2021/12/01 01:52:48;;;;;;;12.50;2.72;;;;;;;1.39;100.00;99877.19;4879420;29;20659;-80
2021/12/01 01:55:13;;;;;;;23.35;3.53;;;;;;;1.37;100.00;99877.22;4881052;29;20212;-80
2021/12/01 01:57:39;;;;;;;13.45;2.85;;;;;;;1.36;100.00;99872.84;4864493;29;20228;-81
2021/12/01 02:00:08;;;;;;;13.73;3.15;;;;;;;1.38;100.00;99870.19;4879520;29;20618;-81
2021/12/01 02:02:38;;;;;;;15.68;3.00;;;;;;;1.41;100.00;99870.13;4880632;29;20249;-82
2021/12/01 02:05:04;;;;;;;11.88;2.83;;;;;;;1.38;100.00;99865.78;4881355;29;20598;-81
2021/12/01 02:07:30;;;;;;;14.95;3.50;;;;;;;1.37;100.00;99855.25;4880888;29;20323;-81
2021/12/01 02:09:55;;;;;;;12.15;2.85;;;;;;;1.38;100.00;99852.59;4882613;29;20224;-82
2021/12/01 02:12:21;;;;;;;14.40;3.00;;;;;;;1.39;100.00;99842.91;4880996;29;20181;-81
2021/12/01 02:14:47;;;;;;;11.18;2.67;;;;;;;1.40;100.00;99845.53;4881121;29;20193;-81
2021/12/01 02:17:12;;;;;;;13.15;2.78;;;;;;;1.39;100.00;99835.84;4881287;29;20273;-81
2021/12/01 02:19:38;;;;;;;18.05;2.92;;;;;;;1.40;100.00;99827.03;4882854;29;20204;-81
2021/12/01 02:22:04;;;;;;;15.45;3.40;;;;;;;1.38;100.00;99817.41;4905497;29;20200;-82
2021/12/01 02:24:30;;;;;;;15.07;3.03;;;;;;;1.37;100.00;99807.75;4891079;29;20209;-81
2021/12/01 02:26:56;;;;;;;17.95;3.40;;;;;;;1.38;100.00;99817.41;4882622;29;20185;-81
2021/12/01 02:29:26;;;;;;;19.73;3.67;;;;;;;1.38;100.00;99812.13;4884066;29;20201;-80
2021/12/01 02:31:54;;;;;;;16.38;3.72;;;;;;;1.41;100.00;99818.22;4882414;29;20193;-80
2021/12/01 02:34:23;;;;;;;14.20;3.95;;;;;;;1.45;100.00;99803.22;4882843;29;20280;-80
2021/12/01 02:36:58;;;;;;;14.32;3.70;;;;;;;1.46;100.00;99809.34;4882140;29;20635;-81
2021/12/01 02:39:24;;;;;;;15.50;3.58;;;;;;;1.49;100.00;99798.72;4880974;29;20243;-80
2021/12/01 02:41:56;;;;;;;21.58;3.78;;;;;;;1.49;100.00;99788.16;4880734;29;20185;-80
2021/12/01 02:44:23;;;;;;;19.90;3.90;;;;;;;1.51;100.00;99779.34;4879889;29;20177;-80
2021/12/01 02:46:50;;;;;;;16.08;3.70;;;;;;;1.56;100.00;99768.69;4879069;29;20632;-80
2021/12/01 02:49:21;;;;;;;13.00;3.25;;;;;;;1.58;100.00;99773.06;4881090;29;20245;-80
2021/12/01 02:51:48;;;;;;;19.20;3.55;;;;;;;1.61;100.00;99746.56;4879899;29;20186;-81
2021/12/01 02:54:14;;;;;;;23.13;4.20;;;;;;;1.62;100.00;99752.75;4882196;29;20663;-81
2021/12/01 02:56:45;;;;;;;13.95;3.42;;;;;;;1.65;100.00;99731.56;4882058;29;20177;-81
2021/12/01 02:59:11;;;;;;;17.55;4.05;;;;;;;1.68;100.00;99723.56;4882197;29;20216;-82
2021/12/01 03:01:36;;;;;;;16.42;4.55;;;;;;;1.71;100.00;99714.75;4882455;29;20548;-82
2021/12/01 03:04:02;;;;;;;21.38;4.60;;;;;;;1.76;100.00;99711.09;4881015;29;20216;-82
2021/12/01 03:06:29;;;;;;;13.18;4.68;;;;;;;1.80;100.00;99699.56;4881232;29;20272;-81
2021/12/01 03:08:56;;;;;;;14.70;4.60;;;;;;;1.83;100.00;99678.38;4880288;29;20631;-81
2021/12/01 03:11:24;;;;;;;19.88;4.70;;;;;;;1.86;100.00;99674.81;4880497;29;20698;-81
2021/12/01 03:13:49;;;;;;;19.95;5.28;;;;;;;1.88;100.00;99665.09;4882237;29;20197;-82
2021/12/01 03:16:15;;;;;;;20.38;4.93;;;;;;;1.92;100.00;99652.66;4879680;29;20181;-82
2021/12/01 03:18:44;;;;;;;22.63;5.50;;;;;;;1.95;100.00;99648.19;4896000;29;20204;-82
2021/12/01 03:21:11;;;;;;;19.42;5.80;;;;;;;2.00;100.00;99634.88;4883405;29;20185;-80
2021/12/01 03:23:36;;;;;;;22.48;6.18;;;;;;;2.02;100.00;99631.28;4884611;29;20170;-80
2021/12/01 03:26:02;;;;;;;20.02;6.25;;;;;;;2.03;100.00;99626.88;4865157;29;20211;-82
2021/12/01 03:28:28;;;;;;;17.20;6.22;;;;;;;2.04;100.00;99600.44;4879867;29;20162;-82
2021/12/01 03:30:55;;;;;;;20.63;7.30;;;;;;;2.08;100.00;99597.72;4880666;29;20212;-81
2021/12/01 03:33:22;;;;;;;25.77;7.85;;;;;;;2.05;100.00;99596.88;4880399;29;20217;-81
2021/12/01 03:35:50;;;;;;;24.10;8.52;;;;;;;2.10;100.00;99593.25;4879149;29;20176;-81
2021/12/01 03:38:17;;;;;;;20.15;7.82;;;;;;;2.09;100.00;99586.25;4894567;29;20196;-81
2021/12/01 03:40:43;;;;;;;18.15;8.07;;;;;;;2.11;100.00;99592.38;4880329;29;20292;-81
2021/12/01 03:43:09;;;;;;;21.95;8.45;;;;;;;2.14;100.00;99581.72;4879411;29;20169;-81
2021/12/01 03:45:34;;;;;;;26.88;8.95;;;;;;;2.15;100.00;99565.84;4879138;29;20644;-81
2021/12/01 03:48:00;;;;;;;25.42;8.68;;;;;;;2.16;100.00;99557.00;4878966;29;20277;-81
2021/12/01 03:50:26;;;;;;;23.50;9.32;;;;;;;2.20;100.00;99544.56;4863349;29;20240;-81
2021/12/01 03:52:52;;;;;;;17.45;7.97;;;;;;;2.21;100.00;99533.97;4880138;29;20169;-81
2021/12/01 03:55:18;;;;;;;20.33;7.78;;;;;;;2.25;100.00;99538.28;4880169;29;20188;-82
2021/12/01 03:57:44;;;;;;;16.50;7.97;;;;;;;2.25;100.00;99516.25;4878805;29;20177;-81
2021/12/01 04:00:12;;;;;;;13.70;7.63;;;;;;;2.27;100.00;99501.22;4879556;29;20212;-81
2021/12/01 04:02:39;;;;;;;19.30;7.68;;;;;;;2.29;100.00;99473.00;4880447;29;20174;-82
2021/12/01 04:05:05;;;;;;;19.35;7.35;;;;;;;2.33;100.00;99472.00;4880019;29;20606;-82
2021/12/01 04:07:31;;;;;;;19.10;7.07;;;;;;;2.35;100.00;99470.19;4880138;29;20177;-82
2021/12/01 04:09:57;;;;;;;21.30;6.40;;;;;;;2.39;100.00;99453.34;4894537;29;20186;-82
2021/12/01 04:12:22;;;;;;;17.17;5.88;;;;;;;2.42;100.00;99434.75;4880658;29;20550;-82
2021/12/01 04:14:48;;;;;;;14.27;5.63;;;;;;;2.44;100.00;99432.94;4880377;29;20606;-81
2021/12/01 04:17:13;;;;;;;9.05;4.63;;;;;;;2.44;100.00;99414.44;4894359;29;20256;-81
2021/12/01 04:19:39;;;;;;;13.55;6.00;;;;;;;2.46;100.00;99398.53;4879447;29;20240;-82
2021/12/01 04:22:05;;;;;;;13.65;5.45;;;;;;;2.49;100.00;99390.50;4879642;29;20222;-82
2021/12/01 04:24:31;;;;;;;9.07;4.90;;;;;;;2.49;100.00;99374.63;4862872;29;20185;-83
2021/12/01 04:26:57;;;;;;;14.05;5.80;;;;;;;2.50;100.00;99373.75;4879498;29;20184;-82
2021/12/01 04:29:23;;;;;;;16.95;5.60;;;;;;;2.52;100.00;99366.63;4879594;29;20280;-83
2021/12/01 04:31:50;;;;;;;10.13;4.57;;;;;;;2.57;100.00;99372.66;4877993;29;20296;-82
2021/12/01 04:34:16;;;;;;;10.15;4.40;;;;;;;2.58;100.00;99347.97;4879548;29;20619;-82
2021/12/01 04:36:43;;;;;;;9.40;4.70;;;;;;;2.57;100.00;99343.56;4877429;29;20177;-83
2021/12/01 04:39:12;;;;;;;13.20;5.57;;;;;;;2.59;100.00;99336.47;4878807;29;20653;-81
2021/12/01 04:41:42;;;;;;;12.52;4.97;;;;;;;2.57;100.00;99319.78;4878718;29;20222;-82
2021/12/01 04:44:14;;;;;;;7.35;4.57;;;;;;;2.58;100.00;99315.34;4877847;29;20189;-81
2021/12/01 04:46:46;;;;;;;10.60;4.93;;;;;;;2.62;100.00;99303.78;4878194;29;20165;-82
2021/12/01 04:49:16;;;;;;;7.88;5.40;;;;;;;2.63;100.00;99300.22;4879036;29;20198;-82
2021/12/01 04:51:44;;;;;;;8.52;4.82;;;;;;;2.66;100.00;99294.84;4879439;29;20197;-82
2021/12/01 04:54:10;;;;;;;6.93;4.50;;;;;;;2.66;100.00;99273.69;4877490;29;20181;-81
2021/12/01 04:56:36;;;;;;;8.65;4.47;;;;;;;2.68;100.00;99264.78;4893555;29;20196;-82
2021/12/01 04:59:09;;;;;;;8.43;4.85;;;;;;;2.69;100.00;99252.44;5223545;23;20234;-82
2021/12/01 05:01:35;;;;;;;8.02;4.53;;;;;;;2.74;100.00;99244.38;4909047;29;20246;-82
2021/12/01 05:04:01;;;;;;;7.25;4.07;;;;;;;2.76;100.00;99232.81;4921009;29;20223;-83
2021/12/01 05:06:26;;;;;;;9.00;4.40;;;;;;;2.78;100.00;99223.06;4897948;29;20164;-80
2021/12/01 05:08:52;;;;;;;7.55;4.50;;;;;;;2.82;100.00;99227.34;4912843;29;20192;-80
2021/12/01 05:11:17;;;;;;;8.13;3.83;;;;;;;2.85;100.00;99229.88;4911791;29;20195;-82
2021/12/01 05:21:35;;;;;;;6.10;4.00;;;;;;;2.95;100.00;99182.84;4877241;29;20227;-81
2021/12/01 05:24:01;;;;;;;4.75;3.38;;;;;;;3.00;100.00;99166.81;4865035;29;20579;-79
2021/12/01 05:26:27;;;;;;;3.70;3.40;;;;;;;3.01;100.00;99176.47;4876810;29;20272;-79
2021/12/01 05:28:52;;;;;;;4.57;3.40;;;;;;;3.03;100.00;99164.91;4860830;29;20177;-79
2021/12/01 05:31:18;;;;;;;4.78;3.47;;;;;;;3.04;100.00;99160.47;4878233;29;20241;-79
2021/12/01 05:33:43;;;;;;;5.40;3.80;;;;;;;3.09;100.00;99156.75;4893972;29;20268;-81
2021/12/01 05:36:09;;;;;;;3.33;2.90;;;;;;;3.13;100.00;99141.66;4895186;29;20177;-79
2021/12/01 05:38:35;;;;;;;3.80;3.40;;;;;;;3.13;100.00;99125.78;4862477;29;20204;-79
2021/12/01 05:41:02;;;;;;;4.18;3.10;;;;;;;3.17;100.00;99122.09;4894009;29;20560;-79
2021/12/01 05:43:29;;;;;;;3.03;2.78;;;;;;;3.19;100.00;99111.44;4893947;29;20200;-81
2021/12/01 05:45:54;;;;;;;5.15;3.30;;;;;;;3.22;100.00;99103.41;4878485;29;20185;-80
2021/12/01 05:48:20;;;;;;;4.00;3.53;;;;;;;3.24;100.00;99096.28;4894641;29;20220;-79
2021/12/01 05:50:46;;;;;;;3.63;3.33;;;;;;;3.28;100.00;99088.16;4895655;29;20188;-80
2021/12/01 05:53:11;;;;;;;3.25;2.78;;;;;;;3.26;100.00;99082.06;4882083;29;20180;-80
2021/12/01 05:55:38;;;;;;;2.85;2.65;;;;;;;3.30;100.00;99066.91;4883201;29;20692;-80
2021/12/01 05:58:04;;;;;;;2.72;2.53;;;;;;;3.32;100.00;99066.88;4899626;29;20228;-80
2021/12/01 06:00:29;;;;;;;2.63;2.40;;;;;;;3.36;100.00;99055.25;4900236;29;20593;-79
2021/12/01 06:02:55;;;;;;;2.60;2.40;;;;;;;3.35;100.00;99042.97;4883221;29;20196;-80
2021/12/01 06:05:22;;;;;;;4.03;2.50;;;;;;;3.34;100.00;99023.53;4884855;29;20251;-81
2021/12/01 06:07:48;;;;;;;2.42;2.22;;;;;;;3.38;100.00;99029.59;4899842;29;20210;-81
2021/12/01 06:10:15;;;;;;;2.17;2.08;;;;;;;3.38;100.00;99013.72;4900543;29;20200;-80
2021/12/01 06:12:41;;;;;;;2.65;2.45;;;;;;;3.44;100.00;99016.13;4900625;29;20172;-80
2021/12/01 06:15:11;;;;;;;2.40;2.20;;;;;;;3.45;100.00;98999.31;4900576;29;20192;-80
2021/12/01 06:17:37;;;;;;;2.05;1.80;;;;;;;3.45;100.00;98988.72;4898609;29;20786;-81
2021/12/01 06:20:04;;;;;;;2.42;2.22;;;;;;;3.49;100.00;98969.16;4883474;29;20588;-81
2021/12/01 06:22:30;;;;;;;2.15;1.95;;;;;;;3.51;100.00;98960.22;4900673;29;20176;-80
2021/12/01 06:24:55;;;;;;;2.35;2.25;;;;;;;3.53;100.00;98961.97;4900605;29;20184;-80
2021/12/01 06:27:22;;;;;;;2.28;2.08;;;;;;;3.56;100.00;98949.44;4883332;29;20169;-81
2021/12/01 06:29:48;;;;;;;2.20;2.00;;;;;;;3.56;100.00;98938.84;4883200;29;20205;-80
2021/12/01 06:32:14;;;;;;;2.60;2.40;;;;;;;3.56;100.00;98928.25;4883599;29;20173;-81
2021/12/01 06:34:39;;;;;;;2.50;2.03;;;;;;;3.60;100.00;98924.56;4868148;29;20196;-81
2021/12/01 06:37:05;;;;;;;2.25;2.15;;;;;;;3.62;100.00;98912.13;4901203;29;20169;-80
2021/12/01 06:39:31;;;;;;;2.20;2.10;;;;;;;3.64;100.00;98909.44;4868712;29;20260;-81
2021/12/01 06:41:56;;;;;;;2.00;1.90;;;;;;;3.63;100.00;98911.22;4883844;29;20217;-80
2021/12/01 06:44:24;;;;;;;2.22;2.13;;;;;;;3.69;100.00;98884.47;4899574;29;20543;-80
2021/12/01 06:46:50;;;;;;;2.35;2.22;;;;;;;3.71;100.00;98887.91;4883555;29;20188;-80
2021/12/01 06:49:15;;;;;;;2.28;2.15;;;;;;;3.74;100.00;98862.22;4883434;29;20195;-82
2021/12/01 06:51:41;;;;;;;2.33;2.13;;;;;;;3.78;100.00;98875.28;4900303;29;20710;-80
2021/12/01 06:54:07;;;;;;;2.28;2.08;;;;;;;3.80;100.00;98877.88;4894339;29;20193;-80
2021/12/01 06:56:32;;;;;;;2.45;2.28;;;;;;;3.83;100.00;98869.81;4882341;29;20169;-80
2021/12/01 06:58:58;;;;;;;2.20;2.10;;;;;;;3.87;100.00;98848.41;4857152;29;20214;-80
2021/12/01 07:01:23;;;;;;;2.50;2.38;;;;;;;3.87;100.00;98852.81;4882786;29;20272;-81
2021/12/01 07:03:49;;;;;;;2.70;2.50;;;;;;;3.87;100.00;98843.13;4882015;29;20185;-81
2021/12/01 07:06:14;;;;;;;2.60;2.40;;;;;;;3.88;100.00;98838.66;4899274;29;20260;-81
2021/12/01 07:08:40;;;;;;;2.80;2.60;;;;;;;3.89;100.00;98832.44;4898637;29;20204;-81
2021/12/01 07:11:06;;;;;;;3.30;3.10;;;;;;;3.93;100.00;98831.38;4899555;29;20228;-81
2021/12/01 07:13:33;;;;;;;3.40;3.03;;;;;;;3.94;100.00;98819.03;4867249;29;20649;-82
2021/12/01 07:16:00;;;;;;;3.10;2.90;;;;;;;3.99;100.00;98806.41;4897945;29;20184;-81
2021/12/01 07:18:26;;;;;;;4.00;3.60;;;;;;;4.02;100.00;98801.81;4879090;29;20312;-80
2021/12/01 07:20:51;;;;;;;4.85;4.38;;;;;;;4.07;100.00;98807.81;4903393;29;20236;-80
2021/12/01 07:23:17;;;;;;;4.00;3.70;;;;;;;4.12;100.00;98792.53;4886410;29;20180;-80
2021/12/01 07:25:42;;;;;;;4.68;4.28;;;;;;;4.14;100.00;98781.88;4886095;29;20188;-80
2021/12/01 07:28:08;;;;;;;4.38;3.97;;;;;;;4.19;100.00;98779.03;4902359;29;20181;-80
2021/12/01 07:30:35;;;;;;;4.65;4.22;;;;;;;4.21;100.00;98758.63;4903957;29;20201;-80
2021/12/01 07:33:01;;;;;;;5.70;5.20;;;;;;;4.32;100.00;98748.38;4871506;29;20185;-80
2021/12/01 07:35:27;;;;;;;5.50;4.80;;;;;;;4.34;100.00;98752.66;4888393;29;20173;-81
2021/12/01 07:37:53;;;;;;;5.65;5.15;;;;;;;4.43;100.00;98743.44;4901870;29;20220;-79
2021/12/01 07:40:19;;;;;;;6.18;5.53;;;;;;;4.48;100.00;98725.53;4900825;29;20213;-80
2021/12/01 07:42:44;;;;;;;7.13;6.53;;;;;;;4.54;100.00;98714.63;4905455;29;20177;-80
2021/12/01 07:45:10;;;;;;;6.57;5.97;;;;;;;4.58;100.00;98718.00;4867149;29;20180;-81
2021/12/01 07:47:36;;;;;;;7.20;6.18;;;;;;;4.67;100.00;98714.03;4899377;29;20181;-81
2021/12/01 07:50:03;;;;;;;7.05;6.35;;;;;;;4.73;100.00;98711.09;4899196;29;20694;-83
2021/12/01 07:52:30;;;;;;;7.93;7.15;;;;;;;4.82;100.00;98699.19;4881926;29;20205;-81
2021/12/01 07:54:56;;;;;;;8.43;7.53;;;;;;;4.95;100.00;98700.28;4898803;29;20200;-81
2021/12/01 07:57:22;;;;;;;9.32;8.00;;;;;;;5.05;100.00;98698.91;4898583;29;20208;-84
2021/12/01 07:59:47;;;;;;;9.50;8.10;;;;;;;5.10;100.00;98688.06;4882381;29;20794;-82
2021/12/01 08:02:13;;;;;;;8.50;7.53;;;;;;;5.26;100.00;98691.63;4882415;29;20176;-81
2021/12/01 08:04:38;;;;;;;10.48;8.00;;;;;;;5.30;100.00;98676.41;4899076;29;20196;-81
2021/12/01 08:07:04;;;;;;;11.02;8.93;;;;;;;5.47;100.00;98672.91;4867147;29;20204;-81
2021/12/01 08:09:31;;;;;;;12.40;9.68;;;;;;;5.62;100.00;98664.13;4882282;29;20236;-81
2021/12/01 08:11:56;;;;;;;13.18;9.20;;;;;;;5.66;100.00;98651.53;4883218;29;20645;-80
2021/12/01 08:14:22;;;;;;;12.85;8.77;;;;;;;5.80;100.00;98651.66;4883684;29;20199;-81
2021/12/01 08:16:48;;;;;;;12.15;8.80;;;;;;;5.85;100.00;98646.09;4883179;29;20173;-80
2021/12/01 08:19:14;;;;;;;13.07;9.73;;;;;;;5.97;100.00;98638.34;4882897;29;20256;-80
2021/12/01 08:21:40;;;;;;;14.30;9.23;;;;;;;6.13;100.00;98622.41;4883810;29;20185;-80
2021/12/01 08:24:06;;;;;;;12.20;8.95;;;;;;;6.24;100.00;98621.81;4900373;29;20200;-80
2021/12/01 08:26:32;;;;;;;14.75;8.95;;;;;;;6.28;100.00;98618.03;4899793;29;20188;-80
2021/12/01 08:28:58;;;;;;;11.13;7.85;;;;;;;6.42;100.00;98619.91;4898993;29;20183;-80
2021/12/01 08:31:23;;;;;;;9.40;7.28;;;;;;;6.57;100.00;98623.50;4900229;29;20165;-80
2021/12/01 08:33:49;;;;;;;9.90;6.43;;;;;;;6.64;100.00;98616.03;4886134;29;20292;-80
2021/12/01 08:36:15;;;;;;;10.38;6.40;;;;;;;6.68;100.00;98618.41;4903370;29;20264;-80
2021/12/01 08:38:41;;;;;;;9.05;6.07;;;;;;;6.76;100.00;98605.53;4886555;29;20228;-80
2021/12/01 08:41:08;;;;;;;8.57;5.70;;;;;;;6.80;100.00;98616.84;4898671;29;20204;-82
2021/12/01 08:43:35;;;;;;;8.27;5.70;;;;;;;6.84;100.00;98598.88;4865707;29;20188;-80
2021/12/01 08:46:01;;;;;;;7.30;5.45;;;;;;;6.80;100.00;98599.06;4898012;29;20177;-81
2021/12/01 08:48:27;;;;;;;7.55;5.35;;;;;;;6.87;100.00;98601.38;4865491;29;20169;-81
2021/12/01 08:50:53;;;;;;;6.82;5.22;;;;;;;6.90;100.00;98574.56;4882251;29;20215;-79
2021/12/01 08:53:19;;;;;;;7.70;5.18;;;;;;;6.93;100.00;98590.34;4899768;29;20181;-80
2021/12/01 08:55:45;;;;;;;8.07;5.45;;;;;;;6.93;100.00;98591.22;4883130;29;20184;-79
2021/12/01 08:58:13;;;;;;;8.40;5.40;;;;;;;6.92;100.00;98572.69;4883143;29;20184;-81
2021/12/01 09:00:43;;;;;;;5.85;4.82;;;;;;;6.91;100.00;98576.28;4900303;29;20212;-80
2021/12/01 09:03:09;;;;;;;7.13;4.93;;;;;;;6.96;100.00;98564.41;4898675;29;20173;-80
2021/12/01 09:05:35;;;;;;;5.85;5.25;;;;;;;6.99;100.00;98563.38;4866871;29;20604;-80
2021/12/01 09:08:01;;;;;;;6.68;4.82;;;;;;;6.94;100.00;98561.00;4881878;29;20184;-83
2021/12/01 09:10:27;;;;;;;6.53;5.28;;;;;;;6.96;100.00;98545.78;4897193;29;20192;-83
2021/12/01 09:12:52;;;;;;;5.55;4.47;;;;;;;6.97;100.00;98544.81;4881722;29;20185;-80
2021/12/01 09:15:18;;;;;;;6.00;4.57;;;;;;;6.95;100.00;98530.78;4866698;29;20173;-80
2021/12/01 09:17:45;;;;;;;5.03;4.10;;;;;;;6.94;100.00;98530.84;4899626;29;20193;-80
2021/12/01 09:20:12;;;;;;;5.30;4.57;;;;;;;6.96;100.00;98529.81;4893379;29;20208;-79
2021/12/01 09:22:38;;;;;;;5.43;4.47;;;;;;;6.98;100.00;98524.41;4898712;29;20264;-80
2021/12/01 09:25:04;;;;;;;5.22;4.55;;;;;;;6.95;100.00;98521.91;4868162;29;20668;-80
2021/12/01 09:27:30;;;;;;;4.80;4.00;;;;;;;6.96;100.00;98521.81;4900220;29;20169;-81
2021/12/01 09:29:55;;;;;;;4.43;4.03;;;;;;;6.97;100.00;98517.34;4900407;29;20662;-80
2021/12/01 09:32:21;;;;;;;4.63;4.22;;;;;;;6.94;100.00;98502.41;4868068;29;20185;-80
2021/12/01 09:34:47;;;;;;;4.70;4.30;;;;;;;6.96;100.00;98503.19;4883920;29;20712;-80
2021/12/01 09:37:13;;;;;;;4.32;3.97;;;;;;;6.97;100.00;98493.38;4893360;29;20200;-80
2021/12/01 09:39:38;;;;;;;4.40;4.05;;;;;;;6.99;100.00;98499.47;4887579;29;20326;-80
2021/12/01 09:42:04;;;;;;;4.43;4.03;;;;;;;6.97;100.00;98490.72;4883598;29;20185;-79
2021/12/01 09:44:31;;;;;;;4.10;3.80;;;;;;;6.93;100.00;98484.75;4885496;29;20282;-80
2021/12/01 09:46:57;;;;;;;4.15;3.75;;;;;;;6.92;100.00;98479.50;4900661;29;20203;-80
2021/12/01 09:49:22;;;;;;;4.45;4.13;;;;;;;6.93;100.00;98483.88;4880426;29;20204;-81
2021/12/01 09:51:48;;;;;;;4.40;4.00;;;;;;;6.89;100.00;98472.56;4875591;29;20188;-82
2021/12/01 09:54:14;;;;;;;4.50;3.80;;;;;;;6.88;100.00;98462.00;4865879;29;20180;-83
2021/12/01 09:56:39;;;;;;;3.70;3.40;;;;;;;6.89;100.00;98467.25;4898077;29;20180;-81
2021/12/01 09:59:05;;;;;;;4.00;3.70;;;;;;;6.91;100.00;98465.34;4898740;29;20220;-80
2021/12/01 10:01:31;;;;;;;4.10;3.78;;;;;;;6.90;100.00;98457.47;4881686;29;20173;-80
2021/12/01 10:03:58;;;;;;;4.47;3.90;;;;;;;6.87;100.00;98445.19;4898213;29;20173;-81
2021/12/01 10:06:25;;;;;;;4.13;3.83;;;;;;;6.98;100.00;98434.75;4892477;29;20238;-80
2021/12/01 10:08:54;;;;;;;4.07;3.78;;;;;;;6.92;100.00;98429.78;4878499;29;20268;-81
2021/12/01 10:11:26;;;;;;;4.18;3.88;;;;;;;6.94;100.00;98432.38;4881020;29;20185;-80
2021/12/01 10:13:55;;;;;;;4.40;4.10;;;;;;;6.95;100.00;98413.66;4896806;29;20176;-81
2021/12/01 10:16:22;;;;;;;5.15;4.22;;;;;;;6.94;100.00;98400.41;4865168;29;20237;-80
2021/12/01 10:18:51;;;;;;;5.03;4.63;;;;;;;6.96;100.00;98411.84;4896963;29;20650;-80
2021/12/01 10:21:22;;;;;;;4.60;4.30;;;;;;;7.06;100.00;98409.44;4880718;29;20276;-81
2021/12/01 10:23:53;;;;;;;4.80;4.40;;;;;;;6.99;100.00;98399.16;4897560;29;20232;-81
2021/12/01 10:26:21;;;;;;;5.25;4.85;;;;;;;6.96;100.00;98394.03;4880476;29;20608;-81
2021/12/01 10:28:50;;;;;;;5.20;4.80;;;;;;;6.97;100.00;98371.78;4881320;29;20657;-82
2021/12/01 10:31:30;;;;;;;4.70;4.40;;;;;;;6.98;100.00;98372.66;4898183;29;20189;-82
2021/12/01 10:34:11;;;;;;;5.40;5.00;;;;;;;6.96;100.00;98361.25;4898554;29;20165;-82
2021/12/01 10:36:37;;;;;;;5.07;4.65;;;;;;;7.04;100.00;98347.44;4881489;29;20219;-82
2021/12/01 10:39:05;;;;;;;5.45;4.97;;;;;;;7.00;100.00;98358.28;4898859;29;20232;-82
2021/12/01 10:41:38;;;;;;;5.88;5.38;;;;;;;6.98;100.00;98346.03;4901717;29;20174;-82
2021/12/01 10:44:09;;;;;;;5.95;5.43;;;;;;;6.96;100.00;98338.13;4901839;29;20173;-81
2021/12/01 10:46:49;;;;;;;6.13;5.63;;;;;;;6.94;100.00;98326.75;4884747;29;20211;-82
2021/12/01 10:49:16;;;;;;;6.28;5.78;;;;;;;6.95;100.00;98319.59;4884619;29;20232;-82
2021/12/01 10:51:44;;;;;;;6.70;6.18;;;;;;;6.95;100.00;98312.50;4901306;29;20579;-82
2021/12/01 10:54:16;;;;;;;6.43;5.90;;;;;;;6.97;100.00;98296.41;4888338;29;20378;-80
2021/12/01 10:56:41;;;;;;;8.38;6.25;;;;;;;6.98;100.00;98296.31;4904850;29;20193;-80
2021/12/01 10:59:12;;;;;;;6.00;5.50;;;;;;;7.03;100.00;98281.84;4905614;29;20209;-80
2021/12/01 11:01:38;;;;;;;5.97;5.40;;;;;;;7.00;100.00;98272.25;4905969;29;20185;-80
2021/12/01 11:04:04;;;;;;;5.65;5.25;;;;;;;7.00;100.00;98257.13;4904168;29;20225;-80
2021/12/01 11:06:33;;;;;;;5.65;5.25;;;;;;;7.01;100.00;98242.84;4906434;29;20177;-81
2021/12/01 11:09:00;;;;;;;5.45;5.07;;;;;;;6.98;100.00;98240.41;4888880;29;20188;-80
2021/12/01 11:11:38;;;;;;;5.30;4.90;;;;;;;6.97;100.00;98220.03;4906081;29;20204;-80
2021/12/01 11:14:17;;;;;;;5.53;4.55;;;;;;;6.98;100.00;98227.09;4888588;29;20169;-82
2021/12/01 11:16:44;;;;;;;4.72;4.32;;;;;;;7.01;100.00;98220.72;4901324;29;20161;-82
2021/12/01 11:19:11;;;;;;;4.63;4.32;;;;;;;6.97;100.00;98212.06;4884856;29;20223;-84
2021/12/01 11:21:39;;;;;;;5.07;4.68;;;;;;;6.94;100.00;98188.31;4884272;29;20180;-82
2021/12/01 11:24:07;;;;;;;5.05;4.65;;;;;;;6.91;100.00;98183.22;4885117;29;20178;-82
2021/12/01 11:26:34;;;;;;;4.90;4.60;;;;;;;6.89;100.00;98185.13;4868633;29;20638;-81
2021/12/01 11:29:05;;;;;;;5.45;5.05;;;;;;;6.90;100.00;98170.00;4899479;29;20229;-81
2021/12/01 11:31:38;;;;;;;4.90;4.50;;;;;;;6.91;100.00;98161.03;4901051;29;20169;-81
2021/12/01 11:34:10;;;;;;;4.63;4.22;;;;;;;6.98;100.00;98133.09;4900820;29;20619;-82
2021/12/01 11:36:44;;;;;;;4.22;3.85;;;;;;;7.02;100.00;98147.91;4900924;29;20223;-81
2021/12/01 11:39:12;;;;;;;4.60;4.30;;;;;;;7.00;100.00;98147.16;4883354;29;20204;-81
2021/12/01 11:41:42;;;;;;;3.97;3.60;;;;;;;6.99;100.00;98142.75;4898858;29;20217;-81
2021/12/01 11:44:10;;;;;;;4.03;3.75;;;;;;;7.01;100.00;98130.19;4900268;29;20647;-81